TimeEDT,TemperatureF,Dew PointF,Humidity,Sea Level PressureIn,VisibilityMPH,Wind Direction,Wind SpeedMPH,Gust SpeedMPH,PrecipitationIn,Events,Conditions,WindDirDegrees,DateUTC
12:53 AM,63.0,46.9,56,29.75,10.0,South,10.4,-,N/A,,Clear,190,2011-10-17 04:53:00
1:53 AM,59.0,48.9,69,29.75,10.0,Calm,Calm,-,N/A,,Clear,0,2011-10-17 05:53:00
2:53 AM,68.0,45.0,43,29.72,10.0,Calm,Calm,-,N/A,,Clear,0,2011-10-17 06:53:00
3:53 AM,73.0,45.0,37,29.72,10.0,West,4.6,-,N/A,,Clear,260,2011-10-17 07:53:00
4:53 AM,73.0,46.0,38,29.74,10.0,Variable,3.5,-,N/A,,Clear,0,2011-10-17 08:53:00
5:53 AM,66.2,46.4,49,29.78,10.0,Variable,3.5,-,N/A,,Clear,0,2011-10-17 09:53:00
6:53 AM,62.1,48.0,60,29.78,10.0,South,3.5,-,N/A,,Clear,180,2011-10-17 10:53:00
7:53 AM,61.0,50.0,67,29.81,10.0,Calm,Calm,-,N/A,,Scattered Clouds,0,2011-10-17 11:53:00
8:53 AM,61.0,50.0,67,29.85,10.0,NNE,9.2,-,N/A,,Partly Cloudy,30,2011-10-17 12:53:00
9:53 AM,63.0,51.1,65,29.86,10.0,Calm,Calm,-,N/A,,Partly Cloudy,0,2011-10-17 13:53:00
11:53 AM,68.0,52.0,56,29.84,10.0,Calm,Calm,-,N/A,,Clear,0,2011-10-17 15:53:00
12:53 PM,70.0,53.1,55,29.81,10.0,Calm,Calm,-,N/A,,Clear,0,2011-10-17 16:53:00
1:53 PM,73.4,53.6,50,29.80,10.0,ESE,5.8,-,N/A,,Clear,110,2011-10-17 17:53:00
2:53 PM,75.9,55.0,48,29.76,10.0,Variable,3.5,-,N/A,,Clear,0,2011-10-17 18:53:00
3:53 PM,77.0,57.0,50,29.75,10.0,South,5.8,-,N/A,,Clear,180,2011-10-17 19:53:00
4:53 PM,77.0,57.9,52,29.75,10.0,SSE,4.6,-,N/A,,Clear,160,2011-10-17 20:53:00
5:53 PM,72.0,59.0,64,29.77,10.0,Calm,Calm,-,N/A,,Clear,0,2011-10-17 21:53:00
6:53 PM,68.0,59.0,73,29.79,10.0,Calm,Calm,-,N/A,,Clear,0,2011-10-17 22:53:00
7:53 PM,64.4,57.2,77,29.83,10.0,Calm,Calm,-,N/A,,Clear,0,2011-10-17 23:53:00
8:53 PM,62.1,55.9,80,29.82,10.0,Calm,Calm,-,N/A,,Clear,0,2011-10-18 00:53:00
9:53 PM,60.1,55.9,86,29.83,10.0,Calm,Calm,-,N/A,,Clear,0,2011-10-18 01:53:00
10:53 PM,57.0,54.0,89,29.83,10.0,Calm,Calm,-,N/A,,Clear,0,2011-10-18 02:53:00
11:53 PM,57.0,54.0,89,29.81,10.0,Calm,Calm,-,N/A,,Clear,0,2011-10-18 03:53:00